Time;durP1;ratioP1;P1;durP2;ratioP2;P2;SDS_P1;SDS_P2;PMS_P1;PMS_P2;Temp;Humidity;BMP_temperature;BMP_pressure;BME280_temperature;BME280_humidity;BME280_pressure;Samples;Min_cycle;Max_cycle;Signal;HPM_P1;HPM_P2
2023/03/17 06:26:55;;;;;;;15.20;6.80;;;;;;;3.88;60.27;101379.28;5929965;28;20444;-85
2023/03/17 06:38:03;;;;;;;10.82;6.95;;;;;;;2.80;63.57;101390.34;5290727;33;20131;-85
2023/03/17 06:41:07;;;;;;;16.92;7.40;;;;;;;2.83;62.39;101385.69;5277561;33;34239;-88
2023/03/17 06:44:10;;;;;;;20.23;7.00;;;;;;;2.93;61.38;101385.94;5276291;33;33399;-87
2023/03/17 06:47:13;;;;;;;14.87;7.45;;;;;;;2.90;61.23;101389.66;5261601;33;34541;-92
2023/03/17 06:50:16;;;;;;;13.10;6.93;;;;;;;3.15;60.86;101390.63;5260993;33;33981;-89
2023/03/17 06:53:20;;;;;;;15.93;7.65;;;;;;;3.25;61.28;101393.53;5279115;33;34293;-85
2023/03/17 06:56:23;;;;;;;17.58;9.75;;;;;;;3.43;61.61;101394.91;5286715;33;34129;-84
2023/03/17 06:59:32;;;;;;;15.68;8.25;;;;;;;3.53;61.68;101395.97;5260173;33;33443;-84
2023/03/17 07:02:35;;;;;;;13.02;7.15;;;;;;;3.81;61.40;101405.53;5285049;33;33643;-83
2023/03/17 07:05:39;;;;;;;13.05;6.45;;;;;;;3.87;60.32;101402.44;5282050;33;33779;-84
2023/03/17 07:08:42;;;;;;;18.85;7.47;;;;;;;3.94;59.98;101410.81;5275897;33;33382;-84
2023/03/17 07:11:45;;;;;;;13.50;8.02;;;;;;;3.96;59.93;101410.72;5294362;33;33968;-83
2023/03/17 07:14:49;;;;;;;13.80;7.12;;;;;;;4.19;58.55;101417.91;5274793;33;34332;-84
2023/03/17 07:17:53;;;;;;;12.32;7.15;;;;;;;4.57;59.04;101416.09;5280674;33;33473;-85
2023/03/17 07:20:56;;;;;;;9.98;6.18;;;;;;;4.80;55.39;101415.22;5276093;33;34173;-84
2023/03/17 07:24:00;;;;;;;11.70;6.68;;;;;;;4.92;55.70;101418.78;5286426;33;35264;-83
2023/03/17 07:27:03;;;;;;;15.00;7.25;;;;;;;5.07;54.77;101414.09;5269448;33;34437;-83
2023/03/17 07:30:07;;;;;;;17.12;6.90;;;;;;;5.23;54.23;101410.16;5278367;33;33509;-84
2023/03/17 07:33:10;;;;;;;11.00;6.65;;;;;;;5.52;53.23;101414.19;5258581;33;35173;-83
2023/03/17 07:36:14;;;;;;;18.77;7.32;;;;;;;5.84;52.59;101417.00;5254238;33;33952;-85
2023/03/17 07:39:17;;;;;;;11.77;6.80;;;;;;;5.86;51.41;101415.91;5257680;33;33930;-83
2023/03/17 07:42:20;;;;;;;13.25;7.15;;;;;;;5.88;49.75;101407.78;5258854;33;32513;-84
2023/03/17 07:45:23;;;;;;;13.05;6.95;;;;;;;6.15;51.05;101414.59;5273235;33;33989;-83
2023/03/17 07:48:26;;;;;;;12.82;7.35;;;;;;;6.28;49.46;101412.63;5263444;33;33626;-84
2023/03/17 07:51:29;;;;;;;26.95;8.57;;;;;;;6.30;48.90;101416.87;5253606;33;34831;-84
2023/03/17 07:54:32;;;;;;;15.52;7.50;;;;;;;6.24;49.17;101421.88;5260642;33;34073;-84
2023/03/17 07:57:36;;;;;;;18.70;8.57;;;;;;;6.46;47.97;101413.78;5269459;33;35441;-84
2023/03/17 08:00:39;;;;;;;14.43;7.15;;;;;;;6.80;47.65;101409.16;5271750;33;34001;-84
2023/03/17 08:03:43;;;;;;;14.05;7.70;;;;;;;7.08;46.29;101412.22;5252214;33;33379;-84
2023/03/17 08:06:46;;;;;;;15.68;7.22;;;;;;;7.28;45.71;101413.19;5254496;33;33934;-84
2023/03/17 08:09:49;;;;;;;26.08;8.02;;;;;;;7.37;45.30;101407.06;5260025;33;34115;-84
2023/03/17 08:12:53;;;;;;;19.70;7.60;;;;;;;7.15;45.95;101401.84;5247390;33;33830;-83
2023/03/17 08:15:55;;;;;;;13.32;6.72;;;;;;;7.40;46.05;101406.81;5253399;33;33990;-83
2023/03/17 08:18:58;;;;;;;11.02;5.90;;;;;;;7.54;44.55;101399.37;5257774;33;35324;-84
2023/03/17 08:22:02;;;;;;;11.07;5.75;;;;;;;7.52;42.99;101394.19;5259119;33;32659;-84
2023/03/17 08:25:05;;;;;;;23.83;6.20;;;;;;;7.71;43.00;101402.28;5272063;33;33676;-84
2023/03/17 08:28:09;;;;;;;21.92;5.97;;;;;;;7.81;42.96;101390.75;5270293;33;34378;-84
2023/03/17 08:31:18;;;;;;;17.60;6.35;;;;;;;7.86;42.52;101394.72;5269388;33;33740;-84
2023/03/17 08:34:23;;;;;;;17.58;5.35;;;;;;;7.83;42.49;101391.47;5269566;33;34003;-84
2023/03/17 08:37:26;;;;;;;8.95;5.60;;;;;;;7.98;43.71;101389.28;5270968;33;33702;-84
2023/03/17 08:40:29;;;;;;;7.43;4.00;;;;;;;8.09;42.27;101384.66;5250328;33;33865;-84
2023/03/17 08:43:35;;;;;;;5.68;3.70;;;;;;;8.23;39.14;101383.41;5260298;33;33801;-84
2023/03/17 08:46:39;;;;;;;6.93;3.05;;;;;;;7.97;38.61;101388.44;5275135;33;33876;-85
2023/03/17 08:49:42;;;;;;;4.85;2.85;;;;;;;8.18;37.39;101382.97;5271450;33;35346;-87
2023/03/17 08:52:47;;;;;;;6.18;3.05;;;;;;;8.30;36.43;101384.56;5265888;33;35447;-88
2023/03/17 08:55:51;;;;;;;13.95;3.87;;;;;;;8.26;35.74;101390.34;5275726;33;34036;-84
2023/03/17 08:58:54;;;;;;;8.80;3.50;;;;;;;8.07;36.33;101386.66;5272728;33;34793;-83
2023/03/17 09:01:57;;;;;;;6.55;3.40;;;;;;;8.18;37.38;101383.81;5262665;33;34235;-84
2023/03/17 09:05:01;;;;;;;6.37;3.17;;;;;;;8.34;36.97;101377.94;5251311;33;34208;-83
2023/03/17 09:08:04;;;;;;;6.22;3.20;;;;;;;8.56;36.09;101373.31;5268801;33;34268;-83
2023/03/17 09:11:09;;;;;;;6.75;3.47;;;;;;;8.55;36.44;101372.47;5256147;33;34455;-83
2023/03/17 09:14:12;;;;;;;6.70;3.50;;;;;;;8.47;36.00;101374.16;5251275;33;32452;-83
2023/03/17 09:17:15;;;;;;;7.03;3.40;;;;;;;8.72;35.06;101383.53;5253497;33;34827;-83
2023/03/17 09:20:18;;;;;;;5.18;3.10;;;;;;;8.73;35.69;101382.53;5257686;33;35032;-84
2023/03/17 09:23:22;;;;;;;5.68;3.17;;;;;;;8.86;35.58;101377.69;5276366;33;34298;-84
2023/03/17 09:26:25;;;;;;;5.10;3.30;;;;;;;8.99;34.90;101380.97;5280806;33;34129;-84
2023/03/17 09:29:28;;;;;;;6.40;3.22;;;;;;;8.96;34.31;101369.66;5279167;33;35098;-84
2023/03/17 09:32:31;;;;;;;5.15;2.80;;;;;;;9.05;34.65;101380.38;5262167;33;35111;-83
2023/03/17 09:35:35;;;;;;;4.50;2.90;;;;;;;9.18;34.93;101374.69;5249441;33;33977;-83
2023/03/17 09:38:38;;;;;;;5.75;3.10;;;;;;;9.07;33.39;101356.06;5256404;33;33893;-83
2023/03/17 09:42:11;;;;;;;6.47;2.90;;;;;;;9.09;33.37;101367.50;5259019;33;34014;-83
2023/03/17 09:45:22;;;;;;;4.70;2.55;;;;;;;9.41;33.95;101363.63;5274639;33;33934;-84
2023/03/17 09:48:48;;;;;;;12.57;2.78;;;;;;;9.52;33.96;101350.00;5268892;33;33943;-83
2023/03/17 09:51:52;;;;;;;3.72;2.72;;;;;;;9.41;32.99;101361.78;5264606;33;33836;-83
2023/03/17 09:54:56;;;;;;;6.32;3.20;;;;;;;9.37;32.89;101368.44;5268704;33;34447;-83
2023/03/17 09:57:59;;;;;;;4.70;2.80;;;;;;;9.42;33.02;101350.06;5241507;33;33578;-83
2023/03/17 10:01:06;;;;;;;5.18;3.00;;;;;;;9.55;32.86;101349.72;5261235;33;35512;-82
2023/03/17 10:04:10;;;;;;;9.85;3.10;;;;;;;9.62;33.62;101342.75;5263356;33;34419;-83
2023/03/17 10:07:18;;;;;;;9.13;3.28;;;;;;;9.84;32.36;101338.00;5265330;33;35044;-84
2023/03/17 10:11:02;;;;;;;4.85;2.90;;;;;;;9.93;31.91;101331.69;5266863;33;34615;-87
2023/03/17 10:14:50;;;;;;;5.78;2.90;;;;;;;9.76;32.32;101334.19;5269901;33;35682;-83
2023/03/17 10:17:53;;;;;;;4.03;3.35;;;;;;;9.78;32.18;101336.75;5268866;33;33974;-83
2023/03/17 10:21:01;;;;;;;4.43;3.08;;;;;;;10.05;31.29;101343.09;5272405;33;35085;-83
2023/03/17 10:24:05;;;;;;;4.95;3.10;;;;;;;9.96;31.01;101334.09;5268794;33;33882;-83
2023/03/17 10:27:11;;;;;;;6.57;3.10;;;;;;;10.06;31.01;101325.94;5256386;33;34627;-83
2023/03/17 10:30:19;;;;;;;9.50;3.40;;;;;;;10.02;31.84;101321.87;5268290;33;34129;-83
2023/03/17 10:33:22;;;;;;;13.52;4.28;;;;;;;10.23;32.25;101319.75;5271434;33;33773;-83
2023/03/17 10:36:35;;;;;;;14.48;3.75;;;;;;;10.39;30.81;101314.56;5258082;33;34392;-83
2023/03/17 10:39:45;;;;;;;6.82;3.42;;;;;;;10.61;30.82;101307.84;5260567;33;34849;-81
2023/03/17 10:42:53;;;;;;;5.00;3.17;;;;;;;10.34;31.48;101297.19;5271432;33;34189;-83
2023/03/17 10:46:01;;;;;;;9.85;3.58;;;;;;;10.76;31.57;101301.91;5274654;33;33755;-82
2023/03/17 10:49:15;;;;;;;4.00;2.80;;;;;;;11.03;30.95;101307.19;5270346;33;34462;-83
2023/03/17 10:52:26;;;;;;;7.50;3.20;;;;;;;10.81;29.89;101300.44;5272659;33;34044;-87
2023/03/17 10:55:38;;;;;;;3.67;3.00;;;;;;;10.85;30.12;101296.47;5270390;33;34464;-84
2023/03/17 10:58:47;;;;;;;5.87;3.30;;;;;;;10.74;30.71;101288.63;5274397;33;35468;-83
2023/03/17 11:01:57;;;;;;;6.07;3.12;;;;;;;11.01;29.87;101290.31;5267529;33;33640;-84
2023/03/17 11:05:08;;;;;;;;;;;;;;;10.83;30.32;101289.53;5266793;33;33546;-81
2023/03/17 11:08:17;;;;;;;4.47;3.37;;;;;;;11.39;29.46;101284.66;5271214;33;34096;-82
2023/03/17 11:11:33;;;;;;;6.37;3.22;;;;;;;11.61;28.99;101267.87;5271308;33;34018;-84
2023/03/17 11:14:36;;;;;;;5.85;3.37;;;;;;;11.89;30.43;101273.91;5268448;33;34271;-84
2023/03/17 11:17:51;;;;;;;7.07;3.35;;;;;;;12.00;28.80;101270.91;5251588;33;32414;-83
2023/03/17 11:21:13;;;;;;;6.28;3.70;;;;;;;12.00;29.18;101257.41;5272077;33;34140;-82
2023/03/17 11:25:08;;;;;;;4.28;3.37;;;;;;;12.46;29.75;101254.25;5278278;33;34278;-82
2023/03/17 11:28:22;;;;;;;5.07;3.78;;;;;;;13.06;28.35;101253.84;5268306;33;35272;-82
2023/03/17 11:31:38;;;;;;;6.82;3.60;;;;;;;13.47;28.23;101248.34;5283675;33;35189;-82
2023/03/17 11:34:57;;;;;;;4.62;3.20;;;;;;;13.49;26.36;101240.06;5263271;33;34825;-83
2023/03/17 11:38:09;;;;;;;3.92;3.00;;;;;;;14.04;26.30;101237.22;5272597;33;33638;-83
2023/03/17 11:41:47;;;;;;;4.90;3.17;;;;;;;13.92;25.46;101235.09;5273078;33;33944;-83
2023/03/17 11:45:15;;;;;;;7.32;3.20;;;;;;;14.05;27.06;101229.94;5281703;33;33507;-82
2023/03/17 11:48:45;;;;;;;6.70;3.37;;;;;;;14.89;25.67;101233.50;5279697;33;34672;-82
2023/03/17 11:52:02;;;;;;;7.65;3.45;;;;;;;15.36;23.92;101226.03;5281278;33;35542;-83
2023/03/17 11:55:22;;;;;;;9.65;3.80;;;;;;;16.45;23.37;101209.69;5270643;33;34265;-83
2023/03/17 11:58:34;;;;;;;4.10;3.03;;;;;;;16.98;22.78;101197.34;5266733;33;34731;-83
2023/03/17 12:01:53;;;;;;;4.40;3.60;;;;;;;17.36;23.33;101188.75;5257079;33;34926;-83
2023/03/17 12:05:03;;;;;;;9.95;3.67;;;;;;;18.54;21.65;101193.81;5277054;33;34509;-84
2023/03/17 12:08:22;;;;;;;5.18;3.10;;;;;;;20.58;19.55;101181.41;5268946;33;34627;-84
2023/03/17 12:11:29;;;;;;;5.57;3.10;;;;;;;20.83;19.98;101164.97;5270052;33;34237;-84
2023/03/17 12:14:43;;;;;;;4.37;3.10;;;;;;;20.55;19.09;101149.84;5277413;33;33810;-84
2023/03/17 12:18:08;;;;;;;8.82;3.20;;;;;;;21.69;18.42;101152.97;5270645;33;34930;-84
2023/03/17 12:21:29;;;;;;;4.70;3.33;;;;;;;22.22;17.96;101166.97;5274821;33;34012;-84
2023/03/17 12:24:52;;;;;;;6.28;3.10;;;;;;;23.67;17.10;101155.13;5286812;33;32620;-83
2023/03/17 12:28:19;;;;;;;8.80;3.28;;;;;;;22.59;17.41;101148.41;5271286;33;33913;-89
2023/03/17 12:31:29;;;;;;;4.35;3.10;;;;;;;22.87;17.27;101145.75;5264467;33;34737;-83
2023/03/17 12:34:45;;;;;;;8.48;3.67;;;;;;;23.06;17.78;101140.16;5288647;33;34853;-84
2023/03/17 12:37:49;;;;;;;4.70;3.00;;;;;;;22.83;17.19;101141.81;5276862;33;34373;-84
2023/03/17 12:41:14;;;;;;;4.00;2.62;;;;;;;21.34;18.44;101130.88;5269159;33;34130;-83
2023/03/17 12:44:35;;;;;;;6.40;3.22;;;;;;;21.90;17.24;101121.44;5282682;33;35219;-83
2023/03/17 12:47:56;;;;;;;5.22;2.95;;;;;;;21.87;18.32;101126.56;5291269;33;34357;-83
2023/03/17 12:51:21;;;;;;;4.87;2.97;;;;;;;22.47;17.34;101120.12;5282025;33;35313;-83
2023/03/17 12:54:34;;;;;;;7.75;3.10;;;;;;;21.44;18.10;101116.62;5282587;33;34328;-83
2023/03/17 12:57:41;;;;;;;5.47;2.90;;;;;;;21.95;17.52;101109.78;5274723;33;34310;-83
2023/03/17 13:00:53;;;;;;;8.55;3.17;;;;;;;22.30;16.60;101109.03;5283699;33;35370;-83
2023/03/17 13:04:11;;;;;;;4.93;3.10;;;;;;;22.35;16.40;101118.22;5280851;33;34262;-84
2023/03/17 13:07:34;;;;;;;5.87;3.00;;;;;;;22.88;15.85;101110.91;5272469;33;33908;-83
2023/03/17 13:10:43;;;;;;;5.70;3.10;;;;;;;24.50;15.15;101097.69;5270534;33;33946;-84
2023/03/17 13:13:52;;;;;;;7.22;2.90;;;;;;;21.88;16.99;101095.31;5261633;33;33980;-83
2023/03/17 13:17:24;;;;;;;5.80;3.45;;;;;;;22.18;17.01;101101.63;5272566;33;34181;-83
2023/03/17 13:20:37;;;;;;;5.53;2.95;;;;;;;21.35;17.42;101085.97;5272555;33;34013;-83
2023/03/17 13:23:55;;;;;;;6.07;3.20;;;;;;;19.97;18.42;101094.59;5276881;33;34075;-83
2023/03/17 13:27:00;;;;;;;7.45;3.17;;;;;;;19.82;18.65;101089.47;5268430;33;33660;-83
2023/03/17 13:30:24;;;;;;;7.05;3.40;;;;;;;19.78;18.42;101069.94;5271071;33;33653;-82
2023/03/17 13:33:31;;;;;;;6.22;3.28;;;;;;;18.17;21.00;101087.13;5283085;33;34160;-82
2023/03/17 13:36:46;;;;;;;7.55;3.97;;;;;;;19.43;19.00;101086.75;5289790;33;33769;-82
2023/03/17 13:40:14;;;;;;;13.85;4.40;;;;;;;19.54;19.07;101079.75;5286679;33;34044;-83
2023/03/17 13:43:28;;;;;;;4.60;3.20;;;;;;;19.90;19.12;101081.00;5274020;33;34276;-82
2023/03/17 13:46:41;;;;;;;3.83;3.28;;;;;;;19.96;18.88;101082.00;5276053;33;33841;-83
2023/03/17 13:49:49;;;;;;;5.93;3.20;;;;;;;19.06;19.30;101082.09;5288483;33;34719;-83
2023/03/17 13:53:01;;;;;;;6.55;3.65;;;;;;;20.35;19.00;101086.28;5276807;33;34680;-84
2023/03/17 13:56:45;;;;;;;4.50;3.00;;;;;;;19.89;18.89;101076.56;5275803;33;34074;-83
2023/03/17 13:59:57;;;;;;;5.28;3.35;;;;;;;20.70;18.08;101070.16;5272227;33;34624;-82
2023/03/17 14:03:28;;;;;;;4.65;3.08;;;;;;;20.33;18.53;101070.09;5260392;33;33630;-82
2023/03/17 14:06:37;;;;;;;5.40;3.25;;;;;;;19.67;19.20;101076.12;5276929;33;34028;-88
2023/03/17 14:09:41;;;;;;;4.75;3.00;;;;;;;18.91;20.50;101072.28;5265724;33;34046;-86
2023/03/17 14:13:06;;;;;;;3.67;2.87;;;;;;;18.08;20.24;101066.59;5259940;33;34015;-83
2023/03/17 14:16:34;;;;;;;6.05;3.25;;;;;;;17.28;21.37;101060.16;5272755;33;34085;-82
2023/03/17 14:19:40;;;;;;;5.10;2.95;;;;;;;16.46;22.40;101057.25;5269197;33;34357;-82
2023/03/17 14:22:46;;;;;;;6.07;3.20;;;;;;;15.42;23.79;101052.44;5269007;33;35196;-82
2023/03/17 14:25:50;;;;;;;4.55;3.50;;;;;;;15.13;24.45;101044.41;5271347;33;34963;-82
2023/03/17 14:28:53;;;;;;;5.78;3.37;;;;;;;14.50;24.54;101041.28;5258156;33;34736;-82
2023/03/17 14:32:14;;;;;;;6.70;3.60;;;;;;;13.56;25.68;101038.97;5266876;33;33727;-82
2023/03/17 14:35:18;;;;;;;5.72;3.62;;;;;;;13.65;26.16;101037.03;5254625;33;34030;-82
2023/03/17 14:38:24;;;;;;;5.87;3.40;;;;;;;13.53;25.96;101033.09;5250352;33;34399;-84
2023/03/17 14:41:28;;;;;;;6.90;3.50;;;;;;;13.29;27.49;101034.09;5268699;33;34976;-82
2023/03/17 14:44:36;;;;;;;5.28;3.10;;;;;;;12.75;26.75;101021.34;5269921;33;34669;-84
2023/03/17 14:47:42;;;;;;;7.22;3.90;;;;;;;12.49;27.25;101027.06;5254882;33;34177;-85
2023/03/17 14:50:52;;;;;;;6.47;3.50;;;;;;;12.22;27.68;101020.22;5253099;33;33987;-83
2023/03/17 14:54:02;;;;;;;;;;;;;;;12.02;28.41;101012.53;5272301;33;34089;-84
2023/03/17 14:57:07;;;;;;;8.05;3.37;;;;;;;11.93;29.01;101009.97;5269855;33;34866;-83
2023/03/17 15:00:32;;;;;;;6.85;4.18;;;;;;;11.83;29.37;101009.31;5260225;33;283226;-83
2023/03/17 15:03:50;;;;;;;8.85;4.03;;;;;;;11.63;28.79;101000.72;5264730;33;33790;-84
2023/03/17 15:06:59;;;;;;;6.10;3.65;;;;;;;11.28;29.34;100989.25;5256228;33;34880;-84
2023/03/17 15:10:03;;;;;;;6.80;3.53;;;;;;;11.31;29.12;100989.75;5267445;33;34041;-83
2023/03/17 15:13:10;;;;;;;4.90;3.80;;;;;;;11.21;30.20;100988.25;5269021;33;33633;-83
2023/03/17 15:16:21;;;;;;;4.87;3.60;;;;;;;11.22;29.05;100987.22;5268869;33;34114;-83
2023/03/17 15:19:28;;;;;;;5.20;3.40;;;;;;;10.90;29.89;100986.16;5269433;33;34664;-82
2023/03/17 15:22:41;;;;;;;6.12;3.72;;;;;;;10.64;31.30;100980.88;5270531;33;33968;-82
2023/03/17 15:25:46;;;;;;;9.23;3.70;;;;;;;10.57;31.81;100969.91;5272101;33;34402;-82
2023/03/17 15:28:50;;;;;;;8.32;4.00;;;;;;;10.46;31.50;100974.75;5272770;33;33574;-85
2023/03/17 15:31:59;;;;;;;8.40;4.20;;;;;;;10.36;31.65;100974.91;5258844;33;34372;-86
2023/03/17 15:35:03;;;;;;;12.57;3.92;;;;;;;10.29;31.85;100969.28;5272314;33;34958;-85
2023/03/17 15:38:10;;;;;;;5.28;3.30;;;;;;;10.13;33.15;100964.66;5259496;33;34053;-85
2023/03/17 15:41:13;;;;;;;5.32;3.70;;;;;;;9.88;31.81;100969.03;5276631;33;34278;-85
2023/03/17 15:44:15;;;;;;;5.35;3.62;;;;;;;9.83;31.69;100971.41;5275182;33;34893;-85
2023/03/17 15:47:21;;;;;;;5.37;3.65;;;;;;;9.76;32.84;100971.16;5252571;33;34359;-85
2023/03/17 15:50:30;;;;;;;6.10;3.70;;;;;;;9.74;32.56;100969.66;5272783;33;34116;-85
2023/03/17 15:53:33;;;;;;;6.90;3.92;;;;;;;9.66;32.40;100962.37;5261184;33;34911;-85
2023/03/17 15:56:37;;;;;;;7.05;3.80;;;;;;;9.52;32.02;100973.69;5286296;33;34988;-85
2023/03/17 15:59:40;;;;;;;5.07;3.40;;;;;;;9.42;32.22;100964.84;5257805;33;34754;-85
2023/03/17 16:02:43;;;;;;;4.57;3.33;;;;;;;9.38;33.79;100958.13;5272232;33;34747;-86
